CGIXA KDPA-KLXV
Flight info
| Callsign | CGIXA |
|---|---|
| Flight time | 3h 7m |
| Altitude | 30000 |
| Route | OBENE3 ROTTN DIYAP Q136 COUGH Q114 BULDG |
| Aircraft | STAR/L-SDFGRWY/S |
Departure
| Time | 2026-04-25 17:15 |
|---|---|
| Airport | Dupage Airport (KDPA) |
Arrival
| Time | 2026-04-25 20:22 |
|---|---|
| Airport | Lake County Airport (KLXV) |
| Time | Latitude | Longitude | Altitude | Speed | Heading |
|---|---|---|---|---|---|
| 2026-04-25 16:54 | 41.90779 | -88.25465 | 760 ft | 0 kts | 227° |
| 2026-04-25 17:10 | 41.90802 | -88.25488 | 757 ft | 8 kts | 60° |
| 2026-04-25 17:11 | 41.90803 | -88.25433 | 760 ft | 12 kts | 90° |
| 2026-04-25 17:11 | 41.90750 | -88.25286 | 757 ft | 23 kts | 150° |
| 2026-04-25 17:11 | 41.90681 | -88.25236 | 759 ft | 2 kts | 110° |
| 2026-04-25 17:11 | 41.90679 | -88.25207 | 759 ft | 11 kts | 90° |
| 2026-04-25 17:12 | 41.90602 | -88.25123 | 758 ft | 26 kts | 181° |
| 2026-04-25 17:12 | 41.90376 | -88.25185 | 758 ft | 38 kts | 193° |
| 2026-04-25 17:12 | 41.90155 | -88.25256 | 757 ft | 24 kts | 193° |
| 2026-04-25 17:12 | 41.89961 | -88.25319 | 757 ft | 32 kts | 193° |
| 2026-04-25 17:13 | 41.89723 | -88.25400 | 757 ft | 38 kts | 194° |
| 2026-04-25 17:13 | 41.89551 | -88.25457 | 756 ft | 33 kts | 194° |
| 2026-04-25 17:13 | 41.89439 | -88.25469 | 754 ft | 0 kts | 114° |
| 2026-04-25 17:13 | 41.89425 | -88.25425 | 756 ft | 10 kts | 113° |
| 2026-04-25 17:14 | 41.89453 | -88.25343 | 755 ft | 7 kts | 12° |
| 2026-04-25 17:14 | 41.89463 | -88.25340 | 756 ft | 0 kts | 12° |
| 2026-04-25 17:14 | 41.89608 | -88.25290 | 758 ft | 43 kts | 14° |
| 2026-04-25 17:14 | 41.90052 | -88.25140 | 756 ft | 88 kts | 14° |
| 2026-04-25 17:15 | 41.90815 | -88.24895 | 761 ft | 136 kts | 13° |
| 2026-04-25 17:15 | 41.91679 | -88.24631 | 1430 ft | 128 kts | 15° |
| 2026-04-25 17:15 | 41.92571 | -88.24440 | 2155 ft | 136 kts | 12° |
| 2026-04-25 17:15 | 41.93555 | -88.24277 | 2802 ft | 145 kts | 360° |
| 2026-04-25 17:16 | 41.94410 | -88.24971 | 3568 ft | 157 kts | 311° |
| 2026-04-25 17:16 | 41.94703 | -88.26414 | 4308 ft | 163 kts | 282° |
| 2026-04-25 17:16 | 41.94638 | -88.27963 | 5050 ft | 167 kts | 267° |
| 2026-04-25 17:16 | 41.94465 | -88.29518 | 5616 ft | 179 kts | 266° |
| 2026-04-25 17:17 | 41.94266 | -88.31249 | 6105 ft | 192 kts | 266° |
| 2026-04-25 17:17 | 41.94057 | -88.33026 | 6834 ft | 192 kts | 265° |
| 2026-04-25 17:17 | 41.93826 | -88.34817 | 7542 ft | 194 kts | 263° |
| 2026-04-25 17:17 | 41.93545 | -88.36605 | 8264 ft | 196 kts | 261° |
| 2026-04-25 17:18 | 41.93265 | -88.38378 | 9008 ft | 196 kts | 260° |
| 2026-04-25 17:18 | 41.92998 | -88.40187 | 9743 ft | 201 kts | 260° |
| 2026-04-25 17:18 | 41.92744 | -88.42085 | 10222 ft | 212 kts | 260° |
| 2026-04-25 17:18 | 41.92485 | -88.44055 | 10862 ft | 214 kts | 259° |
| 2026-04-25 17:19 | 41.92192 | -88.46038 | 11507 ft | 217 kts | 258° |
| 2026-04-25 17:19 | 41.91885 | -88.48018 | 12153 ft | 219 kts | 258° |
| 2026-04-25 17:19 | 41.91570 | -88.50033 | 12810 ft | 221 kts | 258° |
| 2026-04-25 17:19 | 41.91251 | -88.52075 | 13498 ft | 224 kts | 257° |
| 2026-04-25 17:20 | 41.90932 | -88.54144 | 14133 ft | 226 kts | 258° |
| 2026-04-25 17:20 | 41.90618 | -88.56199 | 14741 ft | 227 kts | 258° |
| 2026-04-25 17:20 | 41.90301 | -88.58290 | 15372 ft | 228 kts | 258° |
| 2026-04-25 17:20 | 41.89987 | -88.60391 | 16032 ft | 229 kts | 258° |
| 2026-04-25 17:21 | 41.89680 | -88.62472 | 16688 ft | 231 kts | 258° |
| 2026-04-25 17:21 | 41.89369 | -88.64602 | 17349 ft | 232 kts | 258° |
| 2026-04-25 17:21 | 41.89061 | -88.66739 | 18011 ft | 234 kts | 258° |
| 2026-04-25 17:21 | 41.88751 | -88.68913 | 18486 ft | 244 kts | 258° |
| 2026-04-25 17:22 | 41.88428 | -88.71208 | 18857 ft | 251 kts | 259° |
| 2026-04-25 17:22 | 41.88348 | -88.72758 | 19192 ft | 252 kts | 268° |
| 2026-04-25 17:22 | 41.88413 | -88.75876 | 19907 ft | 252 kts | 271° |
| 2026-04-25 17:22 | 41.88488 | -88.78245 | 20436 ft | 253 kts | 271° |
| 2026-04-25 17:23 | 41.88565 | -88.80646 | 20696 ft | 264 kts | 271° |
| 2026-04-25 17:23 | 41.88643 | -88.83108 | 20970 ft | 269 kts | 271° |
| 2026-04-25 17:23 | 41.88613 | -88.85616 | 21384 ft | 267 kts | 265° |
| 2026-04-25 17:23 | 41.88464 | -88.88110 | 21783 ft | 268 kts | 266° |
| 2026-04-25 17:24 | 41.88397 | -88.90606 | 22158 ft | 268 kts | 268° |
| 2026-04-25 17:24 | 41.88301 | -88.93090 | 22507 ft | 269 kts | 266° |
| 2026-04-25 17:24 | 41.88195 | -88.95613 | 22862 ft | 270 kts | 267° |
| 2026-04-25 17:24 | 41.88108 | -88.98146 | 23210 ft | 271 kts | 267° |
| 2026-04-25 17:25 | 41.88006 | -89.00665 | 23511 ft | 273 kts | 267° |
| 2026-04-25 17:25 | 41.87905 | -89.03222 | 23794 ft | 274 kts | 267° |
| 2026-04-25 17:25 | 41.87808 | -89.05789 | 24055 ft | 274 kts | 267° |
| 2026-04-25 17:25 | 41.87706 | -89.08327 | 24297 ft | 275 kts | 267° |
| 2026-04-25 17:26 | 41.87603 | -89.10908 | 24542 ft | 276 kts | 267° |
| 2026-04-25 17:26 | 41.87502 | -89.13480 | 24794 ft | 276 kts | 267° |
| 2026-04-25 17:26 | 41.87399 | -89.16034 | 25027 ft | 277 kts | 267° |
| 2026-04-25 17:26 | 41.87294 | -89.18627 | 25268 ft | 278 kts | 267° |
| 2026-04-25 17:27 | 41.87189 | -89.21216 | 25485 ft | 278 kts | 267° |
| 2026-04-25 17:27 | 41.87085 | -89.23781 | 25698 ft | 278 kts | 267° |
| 2026-04-25 17:27 | 41.86978 | -89.26387 | 25910 ft | 279 kts | 268° |
| 2026-04-25 17:27 | 41.86942 | -89.27270 | 25990 ft | 279 kts | 268° |
| 2026-04-25 17:28 | 41.86764 | -89.31571 | 26311 ft | 279 kts | 268° |
| 2026-04-25 17:28 | 41.86655 | -89.34177 | 26508 ft | 280 kts | 268° |
| 2026-04-25 17:28 | 41.86545 | -89.36782 | 26690 ft | 280 kts | 268° |
| 2026-04-25 17:28 | 41.86436 | -89.39401 | 26864 ft | 281 kts | 268° |
| 2026-04-25 17:29 | 41.86325 | -89.42021 | 27040 ft | 281 kts | 268° |
| 2026-04-25 17:29 | 41.86214 | -89.44616 | 27210 ft | 282 kts | 268° |
| 2026-04-25 17:29 | 41.86101 | -89.47245 | 27375 ft | 282 kts | 268° |
| 2026-04-25 17:29 | 41.85988 | -89.49879 | 27538 ft | 282 kts | 268° |
| 2026-04-25 17:30 | 41.85874 | -89.52511 | 27683 ft | 283 kts | 268° |
| 2026-04-25 17:30 | 41.85759 | -89.55154 | 27896 ft | 280 kts | 268° |
| 2026-04-25 17:30 | 41.85647 | -89.57691 | 28313 ft | 272 kts | 268° |
| 2026-04-25 17:30 | 41.85537 | -89.60216 | 28582 ft | 270 kts | 268° |
| 2026-04-25 17:31 | 41.85426 | -89.62751 | 28782 ft | 271 kts | 268° |
| 2026-04-25 17:31 | 41.85313 | -89.65274 | 29029 ft | 268 kts | 268° |
| 2026-04-25 17:31 | 41.85203 | -89.67714 | 29504 ft | 260 kts | 268° |
| 2026-04-25 17:31 | 41.85096 | -89.70126 | 29818 ft | 259 kts | 268° |
| 2026-04-25 17:32 | 41.84918 | -89.72552 | 29961 ft | 263 kts | 262° |
| 2026-04-25 17:32 | 41.84445 | -89.74929 | 30025 ft | 269 kts | 255° |
| 2026-04-25 17:32 | 41.83886 | -89.77357 | 30051 ft | 274 kts | 258° |
| 2026-04-25 17:32 | 41.83411 | -89.79854 | 30062 ft | 278 kts | 257° |
| 2026-04-25 17:33 | 41.82877 | -89.82371 | 30063 ft | 282 kts | 256° |
| 2026-04-25 17:33 | 41.82355 | -89.84894 | 30065 ft | 285 kts | 257° |
| 2026-04-25 17:33 | 41.81831 | -89.87476 | 30065 ft | 287 kts | 257° |
| 2026-04-25 17:33 | 41.81287 | -89.90067 | 30065 ft | 289 kts | 257° |
| 2026-04-25 17:34 | 41.80756 | -89.92646 | 30061 ft | 290 kts | 257° |
| 2026-04-25 17:34 | 41.80213 | -89.95270 | 30056 ft | 291 kts | 257° |
| 2026-04-25 17:34 | 41.79665 | -89.97896 | 30057 ft | 292 kts | 257° |
| 2026-04-25 17:34 | 41.79121 | -90.00525 | 30047 ft | 293 kts | 257° |
| 2026-04-25 17:35 | 41.78579 | -90.03128 | 30048 ft | 293 kts | 257° |
| 2026-04-25 17:35 | 41.78028 | -90.05766 | 30048 ft | 294 kts | 257° |
| 2026-04-25 17:35 | 41.77475 | -90.08419 | 30051 ft | 294 kts | 257° |
| 2026-04-25 17:35 | 41.76924 | -90.11058 | 30051 ft | 294 kts | 257° |
| 2026-04-25 17:36 | 41.76375 | -90.13674 | 30052 ft | 294 kts | 257° |
| 2026-04-25 17:36 | 41.75821 | -90.16322 | 30055 ft | 294 kts | 257° |
| 2026-04-25 17:36 | 41.75267 | -90.18965 | 30053 ft | 294 kts | 257° |
| 2026-04-25 17:36 | 41.74720 | -90.21567 | 30052 ft | 294 kts | 257° |
| 2026-04-25 17:37 | 41.74165 | -90.24210 | 30053 ft | 294 kts | 256° |
| 2026-04-25 17:37 | 41.73606 | -90.26861 | 30052 ft | 294 kts | 256° |
| 2026-04-25 17:37 | 41.73055 | -90.29475 | 30056 ft | 294 kts | 256° |
| 2026-04-25 17:37 | 41.72496 | -90.32123 | 30050 ft | 294 kts | 256° |
| 2026-04-25 17:38 | 41.71945 | -90.34728 | 30056 ft | 294 kts | 256° |
| 2026-04-25 17:38 | 41.71757 | -90.35617 | 30052 ft | 294 kts | 256° |
| 2026-04-25 17:38 | 41.70831 | -90.39991 | 30052 ft | 293 kts | 256° |
| 2026-04-25 17:38 | 41.70274 | -90.42617 | 30053 ft | 293 kts | 256° |
| 2026-04-25 17:39 | 41.69716 | -90.45245 | 30037 ft | 293 kts | 256° |
| 2026-04-25 17:39 | 41.69161 | -90.47854 | 30037 ft | 293 kts | 256° |
| 2026-04-25 17:39 | 41.68603 | -90.50472 | 30034 ft | 292 kts | 256° |
| 2026-04-25 17:39 | 41.68050 | -90.53067 | 30035 ft | 292 kts | 256° |
| 2026-04-25 17:40 | 41.67495 | -90.55672 | 30036 ft | 292 kts | 256° |
| 2026-04-25 17:40 | 41.66926 | -90.58329 | 30037 ft | 292 kts | 256° |
| 2026-04-25 17:40 | 41.66376 | -90.60900 | 30038 ft | 292 kts | 256° |
| 2026-04-25 17:40 | 41.65819 | -90.63500 | 30038 ft | 292 kts | 256° |
| 2026-04-25 17:41 | 41.65256 | -90.66127 | 30038 ft | 292 kts | 256° |
| 2026-04-25 17:41 | 41.64692 | -90.68748 | 30036 ft | 291 kts | 256° |
| 2026-04-25 17:41 | 41.64133 | -90.71349 | 30038 ft | 291 kts | 256° |
| 2026-04-25 17:41 | 41.63572 | -90.73957 | 30035 ft | 291 kts | 256° |
| 2026-04-25 17:42 | 41.63018 | -90.76523 | 30037 ft | 291 kts | 256° |
| 2026-04-25 17:42 | 41.62454 | -90.79138 | 30032 ft | 291 kts | 256° |
| 2026-04-25 17:42 | 41.61892 | -90.81742 | 30035 ft | 291 kts | 256° |
| 2026-04-25 17:42 | 41.61335 | -90.84309 | 30035 ft | 291 kts | 256° |
| 2026-04-25 17:43 | 41.60771 | -90.86915 | 30031 ft | 291 kts | 256° |
| 2026-04-25 17:43 | 41.60207 | -90.89515 | 30028 ft | 291 kts | 256° |
| 2026-04-25 17:43 | 41.59643 | -90.92114 | 30028 ft | 291 kts | 256° |
| 2026-04-25 17:43 | 41.59079 | -90.94709 | 30030 ft | 291 kts | 256° |
| 2026-04-25 17:44 | 41.58515 | -90.97302 | 30027 ft | 290 kts | 255° |
| 2026-04-25 17:44 | 41.57956 | -90.99863 | 30029 ft | 290 kts | 255° |
| 2026-04-25 17:44 | 41.57390 | -91.02455 | 30030 ft | 290 kts | 255° |
| 2026-04-25 17:44 | 41.56823 | -91.05054 | 30030 ft | 290 kts | 255° |
| 2026-04-25 17:45 | 41.56256 | -91.07645 | 30034 ft | 290 kts | 255° |
| 2026-04-25 17:45 | 41.56066 | -91.08514 | 30031 ft | 291 kts | 255° |
| 2026-04-25 17:45 | 41.55128 | -91.12798 | 30033 ft | 290 kts | 255° |
| 2026-04-25 17:45 | 41.54552 | -91.15414 | 30035 ft | 290 kts | 255° |
| 2026-04-25 17:46 | 41.53991 | -91.17971 | 30033 ft | 290 kts | 255° |
| 2026-04-25 17:46 | 41.53422 | -91.20558 | 30032 ft | 290 kts | 255° |
| 2026-04-25 17:46 | 41.52850 | -91.23152 | 30032 ft | 290 kts | 255° |
| 2026-04-25 17:46 | 41.52472 | -91.24869 | 30027 ft | 290 kts | 255° |
| 2026-04-25 17:47 | 41.51715 | -91.28298 | 30028 ft | 290 kts | 255° |
| 2026-04-25 17:47 | 41.51141 | -91.30892 | 30026 ft | 290 kts | 255° |
| 2026-04-25 17:47 | 41.50764 | -91.32597 | 30019 ft | 290 kts | 255° |
| 2026-04-25 17:47 | 41.50189 | -91.35194 | 30024 ft | 290 kts | 255° |
| 2026-04-25 17:48 | 41.49039 | -91.40371 | 30033 ft | 290 kts | 255° |
| 2026-04-25 17:48 | 41.48465 | -91.42958 | 30030 ft | 290 kts | 255° |
| 2026-04-25 17:48 | 41.47898 | -91.45502 | 30028 ft | 290 kts | 255° |
| 2026-04-25 17:49 | 41.47321 | -91.48094 | 30031 ft | 290 kts | 255° |
| 2026-04-25 17:49 | 41.46744 | -91.50680 | 30030 ft | 290 kts | 255° |
| 2026-04-25 17:49 | 41.46173 | -91.53233 | 30028 ft | 290 kts | 255° |
| 2026-04-25 17:49 | 41.45595 | -91.55819 | 30030 ft | 290 kts | 255° |
| 2026-04-25 17:50 | 41.45018 | -91.58400 | 30004 ft | 290 kts | 255° |
| 2026-04-25 17:50 | 41.44442 | -91.60965 | 30004 ft | 290 kts | 255° |
| 2026-04-25 17:50 | 41.43862 | -91.63550 | 30001 ft | 290 kts | 255° |
| 2026-04-25 17:50 | 41.43284 | -91.66124 | 30001 ft | 290 kts | 255° |
| 2026-04-25 17:51 | 41.42710 | -91.68675 | 30005 ft | 290 kts | 255° |
| 2026-04-25 17:51 | 41.42130 | -91.71254 | 29999 ft | 290 kts | 255° |
| 2026-04-25 17:51 | 41.41545 | -91.73842 | 30000 ft | 290 kts | 255° |
| 2026-04-25 17:51 | 41.40964 | -91.76417 | 30000 ft | 290 kts | 255° |
| 2026-04-25 17:52 | 41.40388 | -91.78971 | 29999 ft | 290 kts | 255° |
| 2026-04-25 17:52 | 41.39998 | -91.80694 | 30006 ft | 290 kts | 255° |
| 2026-04-25 17:52 | 41.39225 | -91.84106 | 30002 ft | 290 kts | 255° |
| 2026-04-25 17:52 | 41.38640 | -91.86684 | 30003 ft | 290 kts | 254° |
| 2026-04-25 17:53 | 41.38062 | -91.89230 | 30001 ft | 290 kts | 254° |
| 2026-04-25 17:53 | 41.37475 | -91.91813 | 30004 ft | 290 kts | 254° |
| 2026-04-25 17:53 | 41.36897 | -91.94353 | 30006 ft | 290 kts | 254° |
| 2026-04-25 17:53 | 41.36311 | -91.96923 | 30003 ft | 290 kts | 254° |
| 2026-04-25 17:54 | 41.35724 | -91.99497 | 30003 ft | 289 kts | 254° |
| 2026-04-25 17:54 | 41.35136 | -92.02076 | 30004 ft | 290 kts | 254° |
| 2026-04-25 17:54 | 41.34547 | -92.04645 | 30005 ft | 290 kts | 254° |
| 2026-04-25 17:54 | 41.33967 | -92.07183 | 30006 ft | 290 kts | 254° |
| 2026-04-25 17:55 | 41.33377 | -92.09758 | 30001 ft | 290 kts | 254° |
| 2026-04-25 17:55 | 41.32795 | -92.12294 | 30007 ft | 290 kts | 254° |
| 2026-04-25 17:55 | 41.32202 | -92.14873 | 30005 ft | 289 kts | 254° |
| 2026-04-25 17:55 | 41.31616 | -92.17424 | 30006 ft | 289 kts | 254° |
| 2026-04-25 17:56 | 41.31027 | -92.19987 | 30002 ft | 289 kts | 254° |
| 2026-04-25 17:56 | 41.30434 | -92.22554 | 30004 ft | 289 kts | 254° |
| 2026-04-25 17:56 | 41.29843 | -92.25119 | 30004 ft | 289 kts | 254° |
| 2026-04-25 17:56 | 41.29259 | -92.27650 | 30007 ft | 289 kts | 254° |
| 2026-04-25 17:57 | 41.28669 | -92.30197 | 30006 ft | 289 kts | 254° |
| 2026-04-25 17:57 | 41.28074 | -92.32768 | 30006 ft | 289 kts | 254° |
| 2026-04-25 17:57 | 41.27485 | -92.35308 | 30008 ft | 289 kts | 254° |
| 2026-04-25 17:57 | 41.27085 | -92.37036 | 30007 ft | 289 kts | 254° |
| 2026-04-25 17:58 | 41.26292 | -92.40448 | 30007 ft | 289 kts | 254° |
| 2026-04-25 17:58 | 41.25699 | -92.42996 | 30008 ft | 289 kts | 254° |
| 2026-04-25 17:58 | 41.25166 | -92.45290 | 30011 ft | 288 kts | 254° |
| 2026-04-25 17:58 | 41.24568 | -92.47854 | 30008 ft | 289 kts | 254° |
| 2026-04-25 17:59 | 41.23974 | -92.50400 | 30010 ft | 289 kts | 254° |
| 2026-04-25 17:59 | 41.23379 | -92.52945 | 30008 ft | 290 kts | 254° |
| 2026-04-25 17:59 | 41.22779 | -92.55511 | 30008 ft | 290 kts | 253° |
| 2026-04-25 17:59 | 41.22187 | -92.58037 | 30009 ft | 290 kts | 254° |
| 2026-04-25 18:00 | 41.21581 | -92.60627 | 30007 ft | 290 kts | 254° |
| 2026-04-25 18:00 | 41.20982 | -92.63177 | 30007 ft | 291 kts | 254° |
| 2026-04-25 18:00 | 41.20379 | -92.65747 | 30006 ft | 291 kts | 253° |
| 2026-04-25 18:00 | 41.19778 | -92.68302 | 30006 ft | 291 kts | 253° |
| 2026-04-25 18:01 | 41.19174 | -92.70867 | 30002 ft | 291 kts | 253° |
| 2026-04-25 18:01 | 41.18571 | -92.73427 | 30003 ft | 291 kts | 253° |
| 2026-04-25 18:01 | 41.17959 | -92.76018 | 29999 ft | 291 kts | 253° |
| 2026-04-25 18:01 | 41.17355 | -92.78575 | 30002 ft | 291 kts | 253° |
| 2026-04-25 18:02 | 41.16749 | -92.81138 | 29999 ft | 288 kts | 253° |
| 2026-04-25 18:02 | 41.16150 | -92.83667 | 29995 ft | 289 kts | 253° |
| 2026-04-25 18:02 | 41.15546 | -92.86212 | 29996 ft | 290 kts | 253° |
| 2026-04-25 18:02 | 41.14943 | -92.88756 | 29994 ft | 290 kts | 253° |
| 2026-04-25 18:03 | 41.14340 | -92.91292 | 29996 ft | 291 kts | 253° |
| 2026-04-25 18:03 | 41.13725 | -92.93880 | 30000 ft | 291 kts | 253° |
| 2026-04-25 18:03 | 41.13119 | -92.96425 | 29992 ft | 291 kts | 253° |
| 2026-04-25 18:03 | 41.12508 | -92.98988 | 29993 ft | 291 kts | 253° |
| 2026-04-25 18:04 | 41.11898 | -93.01546 | 29997 ft | 291 kts | 253° |
| 2026-04-25 18:04 | 41.11285 | -93.04110 | 29997 ft | 291 kts | 253° |
| 2026-04-25 18:04 | 41.10669 | -93.06687 | 29998 ft | 291 kts | 253° |
| 2026-04-25 18:04 | 41.10058 | -93.09241 | 30002 ft | 291 kts | 253° |
| 2026-04-25 18:05 | 41.09447 | -93.11788 | 29994 ft | 291 kts | 253° |
| 2026-04-25 18:05 | 41.08835 | -93.14340 | 29989 ft | 291 kts | 253° |
| 2026-04-25 18:05 | 41.08221 | -93.16896 | 29993 ft | 292 kts | 253° |
| 2026-04-25 18:05 | 41.07601 | -93.19474 | 29989 ft | 292 kts | 253° |
| 2026-04-25 18:06 | 41.06988 | -93.22020 | 29993 ft | 292 kts | 253° |
| 2026-04-25 18:06 | 41.06371 | -93.24575 | 29991 ft | 292 kts | 253° |
| 2026-04-25 18:06 | 41.05756 | -93.27128 | 29989 ft | 292 kts | 253° |
| 2026-04-25 18:06 | 41.05128 | -93.29727 | 29989 ft | 292 kts | 253° |
| 2026-04-25 18:07 | 41.04514 | -93.32263 | 29988 ft | 292 kts | 253° |
| 2026-04-25 18:07 | 41.03897 | -93.34821 | 29989 ft | 292 kts | 253° |
| 2026-04-25 18:07 | 41.03277 | -93.37372 | 29991 ft | 292 kts | 253° |
| 2026-04-25 18:07 | 41.02654 | -93.39941 | 29987 ft | 292 kts | 253° |
| 2026-04-25 18:08 | 41.02025 | -93.42530 | 29987 ft | 292 kts | 253° |
| 2026-04-25 18:08 | 41.01402 | -93.45093 | 29990 ft | 292 kts | 253° |
| 2026-04-25 18:08 | 41.00783 | -93.47634 | 29987 ft | 292 kts | 253° |
| 2026-04-25 18:08 | 41.00162 | -93.50185 | 29991 ft | 292 kts | 253° |
| 2026-04-25 18:09 | 40.99597 | -93.52751 | 29991 ft | 291 kts | 257° |
| 2026-04-25 18:09 | 40.99315 | -93.55417 | 29990 ft | 291 kts | 266° |
| 2026-04-25 18:09 | 40.99176 | -93.58086 | 29991 ft | 291 kts | 264° |
| 2026-04-25 18:09 | 40.99097 | -93.58975 | 29988 ft | 291 kts | 263° |
| 2026-04-25 18:10 | 40.98730 | -93.63409 | 29991 ft | 291 kts | 265° |
| 2026-04-25 18:10 | 40.98521 | -93.66068 | 29991 ft | 291 kts | 263° |
| 2026-04-25 18:10 | 40.98299 | -93.68715 | 29987 ft | 291 kts | 264° |
| 2026-04-25 18:10 | 40.98092 | -93.71406 | 29991 ft | 292 kts | 264° |
| 2026-04-25 18:11 | 40.97876 | -93.74056 | 29987 ft | 291 kts | 264° |
| 2026-04-25 18:11 | 40.97661 | -93.76710 | 29990 ft | 291 kts | 264° |
| 2026-04-25 18:11 | 40.97445 | -93.79397 | 29991 ft | 291 kts | 264° |
| 2026-04-25 18:11 | 40.97233 | -93.82077 | 29988 ft | 292 kts | 264° |
| 2026-04-25 18:12 | 40.97024 | -93.84730 | 29988 ft | 291 kts | 264° |
| 2026-04-25 18:12 | 40.96812 | -93.87374 | 29985 ft | 291 kts | 264° |
| 2026-04-25 18:12 | 40.96598 | -93.90049 | 29987 ft | 291 kts | 264° |
| 2026-04-25 18:12 | 40.96386 | -93.92705 | 29989 ft | 291 kts | 264° |
| 2026-04-25 18:13 | 40.96171 | -93.95364 | 29985 ft | 291 kts | 264° |
| 2026-04-25 18:13 | 40.95956 | -93.98039 | 29987 ft | 291 kts | 264° |
| 2026-04-25 18:13 | 40.95741 | -94.00695 | 29986 ft | 291 kts | 264° |
| 2026-04-25 18:14 | 40.95308 | -94.06022 | 29986 ft | 290 kts | 264° |
| 2026-04-25 18:14 | 40.95093 | -94.08664 | 29985 ft | 290 kts | 264° |
| 2026-04-25 18:14 | 40.94877 | -94.11315 | 29987 ft | 290 kts | 263° |
| 2026-04-25 18:14 | 40.94658 | -94.13966 | 29990 ft | 290 kts | 264° |
| 2026-04-25 18:15 | 40.94438 | -94.16649 | 29988 ft | 290 kts | 264° |
| 2026-04-25 18:15 | 40.94221 | -94.19274 | 29988 ft | 290 kts | 264° |
| 2026-04-25 18:15 | 40.94000 | -94.21940 | 29988 ft | 290 kts | 263° |
| 2026-04-25 18:15 | 40.93782 | -94.24576 | 29985 ft | 290 kts | 263° |
| 2026-04-25 18:16 | 40.93560 | -94.27234 | 29989 ft | 290 kts | 264° |
| 2026-04-25 18:16 | 40.93342 | -94.29865 | 29990 ft | 290 kts | 263° |
| 2026-04-25 18:16 | 40.92897 | -94.35187 | 29991 ft | 290 kts | 264° |
| 2026-04-25 18:17 | 40.92685 | -94.37830 | 29990 ft | 290 kts | 264° |
| 2026-04-25 18:17 | 40.92464 | -94.40457 | 29991 ft | 290 kts | 263° |
| 2026-04-25 18:17 | 40.92244 | -94.43127 | 29990 ft | 290 kts | 264° |
| 2026-04-25 18:17 | 40.92027 | -94.45761 | 29986 ft | 290 kts | 263° |
| 2026-04-25 18:18 | 40.91805 | -94.48412 | 29989 ft | 289 kts | 264° |
| 2026-04-25 18:18 | 40.91586 | -94.51039 | 29986 ft | 289 kts | 264° |
| 2026-04-25 18:18 | 40.91365 | -94.53696 | 29985 ft | 289 kts | 263° |
| 2026-04-25 18:18 | 40.91143 | -94.56331 | 29982 ft | 289 kts | 263° |
| 2026-04-25 18:19 | 40.90921 | -94.58976 | 29982 ft | 289 kts | 263° |
| 2026-04-25 18:19 | 40.90698 | -94.61617 | 29981 ft | 290 kts | 263° |
| 2026-04-25 18:19 | 40.90475 | -94.64247 | 29981 ft | 290 kts | 263° |
| 2026-04-25 18:19 | 40.90252 | -94.66894 | 29979 ft | 290 kts | 263° |
| 2026-04-25 18:20 | 40.90026 | -94.69536 | 29978 ft | 290 kts | 263° |
| 2026-04-25 18:20 | 40.89801 | -94.72180 | 29978 ft | 290 kts | 263° |
| 2026-04-25 18:20 | 40.89573 | -94.74848 | 29971 ft | 290 kts | 263° |
| 2026-04-25 18:20 | 40.89347 | -94.77477 | 29976 ft | 290 kts | 263° |
| 2026-04-25 18:21 | 40.89117 | -94.80157 | 29976 ft | 290 kts | 263° |
| 2026-04-25 18:21 | 40.88889 | -94.82803 | 29976 ft | 290 kts | 263° |
| 2026-04-25 18:21 | 40.88663 | -94.85420 | 29975 ft | 290 kts | 263° |
| 2026-04-25 18:21 | 40.88432 | -94.88073 | 29977 ft | 290 kts | 263° |
| 2026-04-25 18:22 | 40.88202 | -94.90717 | 29977 ft | 289 kts | 263° |
| 2026-04-25 18:22 | 40.88127 | -94.91582 | 29978 ft | 289 kts | 263° |
| 2026-04-25 18:22 | 40.87741 | -94.95993 | 29976 ft | 289 kts | 263° |
| 2026-04-25 18:22 | 40.87509 | -94.98636 | 29978 ft | 289 kts | 263° |
| 2026-04-25 18:23 | 40.87276 | -95.01284 | 29977 ft | 289 kts | 263° |
| 2026-04-25 18:23 | 40.87046 | -95.03887 | 29980 ft | 288 kts | 263° |
| 2026-04-25 18:23 | 40.86813 | -95.06525 | 29976 ft | 289 kts | 263° |
| 2026-04-25 18:23 | 40.86578 | -95.09171 | 29981 ft | 289 kts | 263° |
| 2026-04-25 18:24 | 40.86342 | -95.11823 | 29982 ft | 290 kts | 263° |
| 2026-04-25 18:24 | 40.86107 | -95.14451 | 29979 ft | 290 kts | 263° |
| 2026-04-25 18:24 | 40.85871 | -95.17111 | 29966 ft | 290 kts | 263° |
| 2026-04-25 18:24 | 40.85636 | -95.19722 | 29969 ft | 289 kts | 262° |
| 2026-04-25 18:25 | 40.85398 | -95.22365 | 29969 ft | 289 kts | 263° |
| 2026-04-25 18:25 | 40.85161 | -95.25002 | 29969 ft | 288 kts | 262° |
| 2026-04-25 18:25 | 40.84923 | -95.27632 | 29957 ft | 288 kts | 262° |
| 2026-04-25 18:25 | 40.84684 | -95.30271 | 29956 ft | 288 kts | 262° |
| 2026-04-25 18:26 | 40.84448 | -95.32866 | 29956 ft | 287 kts | 262° |
| 2026-04-25 18:26 | 40.84209 | -95.35491 | 29955 ft | 287 kts | 262° |
| 2026-04-25 18:26 | 40.83970 | -95.38112 | 29955 ft | 287 kts | 262° |
| 2026-04-25 18:26 | 40.83734 | -95.40699 | 29956 ft | 287 kts | 262° |
| 2026-04-25 18:27 | 40.83492 | -95.43323 | 29952 ft | 287 kts | 262° |
| 2026-04-25 18:27 | 40.83252 | -95.45939 | 29953 ft | 287 kts | 262° |
| 2026-04-25 18:27 | 40.83011 | -95.48557 | 29953 ft | 287 kts | 262° |
| 2026-04-25 18:27 | 40.82768 | -95.51180 | 29953 ft | 287 kts | 262° |
| 2026-04-25 18:28 | 40.82525 | -95.53798 | 29954 ft | 286 kts | 262° |
| 2026-04-25 18:28 | 40.82286 | -95.56378 | 29955 ft | 286 kts | 262° |
| 2026-04-25 18:28 | 40.82043 | -95.58988 | 29957 ft | 286 kts | 262° |
| 2026-04-25 18:29 | 40.81557 | -95.64185 | 29951 ft | 285 kts | 262° |
| 2026-04-25 18:29 | 40.81313 | -95.66789 | 29955 ft | 285 kts | 262° |
| 2026-04-25 18:30 | 40.80582 | -95.74554 | 29965 ft | 284 kts | 261° |
| 2026-04-25 18:30 | 40.80335 | -95.77148 | 29968 ft | 284 kts | 261° |
| 2026-04-25 18:30 | 40.80090 | -95.79741 | 29966 ft | 284 kts | 261° |
| 2026-04-25 18:30 | 40.79846 | -95.82302 | 29966 ft | 284 kts | 261° |
| 2026-04-25 18:31 | 40.79599 | -95.84883 | 29969 ft | 284 kts | 261° |
| 2026-04-25 18:31 | 40.79351 | -95.87481 | 29971 ft | 284 kts | 261° |
| 2026-04-25 18:31 | 40.79103 | -95.90077 | 29967 ft | 284 kts | 261° |
| 2026-04-25 18:31 | 40.78855 | -95.92650 | 29965 ft | 284 kts | 261° |
| 2026-04-25 18:32 | 40.78600 | -95.95221 | 29970 ft | 283 kts | 261° |
| 2026-04-25 18:32 | 40.78378 | -95.97802 | 29969 ft | 284 kts | 262° |
| 2026-04-25 18:32 | 40.78158 | -96.00378 | 29967 ft | 284 kts | 261° |
| 2026-04-25 18:32 | 40.77917 | -96.02980 | 29967 ft | 284 kts | 261° |
| 2026-04-25 18:33 | 40.77695 | -96.05538 | 29964 ft | 284 kts | 261° |
| 2026-04-25 18:33 | 40.77462 | -96.08147 | 29962 ft | 284 kts | 261° |
| 2026-04-25 18:33 | 40.77230 | -96.10717 | 29963 ft | 284 kts | 261° |
| 2026-04-25 18:33 | 40.77001 | -96.13296 | 29958 ft | 284 kts | 261° |
| 2026-04-25 18:34 | 40.76768 | -96.15886 | 29955 ft | 284 kts | 261° |
| 2026-04-25 18:34 | 40.76534 | -96.18478 | 29957 ft | 284 kts | 261° |
| 2026-04-25 18:34 | 40.76376 | -96.20234 | 29956 ft | 285 kts | 261° |
| 2026-04-25 18:34 | 40.76144 | -96.22802 | 29954 ft | 285 kts | 261° |
| 2026-04-25 18:35 | 40.75832 | -96.26247 | 29954 ft | 285 kts | 261° |
| 2026-04-25 18:35 | 40.75671 | -96.28009 | 29951 ft | 285 kts | 261° |
| 2026-04-25 18:35 | 40.75435 | -96.30604 | 29952 ft | 285 kts | 261° |
| 2026-04-25 18:35 | 40.75199 | -96.33182 | 29953 ft | 285 kts | 261° |
| 2026-04-25 18:36 | 40.74961 | -96.35787 | 29951 ft | 285 kts | 261° |
| 2026-04-25 18:36 | 40.74721 | -96.38394 | 29951 ft | 285 kts | 261° |
| 2026-04-25 18:36 | 40.74484 | -96.40972 | 29955 ft | 285 kts | 261° |
| 2026-04-25 18:36 | 40.74244 | -96.43572 | 29957 ft | 286 kts | 261° |
| 2026-04-25 18:37 | 40.74003 | -96.46175 | 29951 ft | 286 kts | 261° |
| 2026-04-25 18:37 | 40.73762 | -96.48781 | 29956 ft | 286 kts | 261° |
| 2026-04-25 18:37 | 40.73519 | -96.51388 | 29957 ft | 285 kts | 261° |
| 2026-04-25 18:37 | 40.73280 | -96.53959 | 29956 ft | 285 kts | 260° |
| 2026-04-25 18:38 | 40.73037 | -96.56563 | 29957 ft | 285 kts | 260° |
| 2026-04-25 18:38 | 40.72792 | -96.59165 | 29960 ft | 285 kts | 260° |
| 2026-04-25 18:38 | 40.72552 | -96.61734 | 29962 ft | 285 kts | 260° |
| 2026-04-25 18:38 | 40.72307 | -96.64337 | 29963 ft | 285 kts | 260° |
| 2026-04-25 18:39 | 40.72061 | -96.66936 | 29958 ft | 285 kts | 260° |
| 2026-04-25 18:39 | 40.71818 | -96.69512 | 29961 ft | 285 kts | 260° |
| 2026-04-25 18:39 | 40.71569 | -96.72133 | 29958 ft | 285 kts | 260° |
| 2026-04-25 18:39 | 40.71324 | -96.74721 | 29961 ft | 285 kts | 260° |
| 2026-04-25 18:40 | 40.71078 | -96.77302 | 29961 ft | 285 kts | 260° |
| 2026-04-25 18:40 | 40.70830 | -96.79887 | 29962 ft | 285 kts | 260° |
| 2026-04-25 18:40 | 40.70585 | -96.82460 | 29958 ft | 285 kts | 260° |
| 2026-04-25 18:40 | 40.70333 | -96.85083 | 29962 ft | 285 kts | 260° |
| 2026-04-25 18:41 | 40.70085 | -96.87659 | 29957 ft | 285 kts | 260° |
| 2026-04-25 18:41 | 40.69836 | -96.90236 | 29956 ft | 285 kts | 260° |
| 2026-04-25 18:41 | 40.69584 | -96.92848 | 29955 ft | 286 kts | 260° |
| 2026-04-25 18:41 | 40.69333 | -96.95436 | 29954 ft | 285 kts | 260° |
| 2026-04-25 18:42 | 40.69095 | -96.98018 | 29955 ft | 286 kts | 260° |
| 2026-04-25 18:42 | 40.68890 | -96.99736 | 29953 ft | 286 kts | 258° |
| 2026-04-25 18:42 | 40.68478 | -97.03214 | 29950 ft | 287 kts | 259° |
| 2026-04-25 18:42 | 40.68189 | -97.05828 | 29948 ft | 288 kts | 259° |
| 2026-04-25 18:43 | 40.67879 | -97.08427 | 29951 ft | 289 kts | 259° |
| 2026-04-25 18:43 | 40.67581 | -97.11063 | 29945 ft | 289 kts | 259° |
| 2026-04-25 18:43 | 40.67280 | -97.13668 | 29943 ft | 290 kts | 259° |
| 2026-04-25 18:43 | 40.66974 | -97.16286 | 29941 ft | 290 kts | 259° |
| 2026-04-25 18:44 | 40.66670 | -97.18934 | 29935 ft | 290 kts | 259° |
| 2026-04-25 18:44 | 40.66366 | -97.21541 | 29933 ft | 291 kts | 259° |
| 2026-04-25 18:44 | 40.66056 | -97.24194 | 29937 ft | 291 kts | 259° |
| 2026-04-25 18:44 | 40.65753 | -97.26808 | 29936 ft | 292 kts | 259° |
| 2026-04-25 18:45 | 40.65442 | -97.29462 | 29933 ft | 292 kts | 259° |
| 2026-04-25 18:45 | 40.65133 | -97.32095 | 29931 ft | 292 kts | 259° |
| 2026-04-25 18:45 | 40.64822 | -97.34754 | 29924 ft | 293 kts | 259° |
| 2026-04-25 18:45 | 40.64513 | -97.37378 | 29927 ft | 293 kts | 258° |
| 2026-04-25 18:46 | 40.64199 | -97.40042 | 29922 ft | 293 kts | 258° |
| 2026-04-25 18:46 | 40.63884 | -97.42707 | 29922 ft | 294 kts | 258° |
| 2026-04-25 18:46 | 40.63571 | -97.45352 | 29921 ft | 294 kts | 258° |
| 2026-04-25 18:46 | 40.63258 | -97.47999 | 29924 ft | 294 kts | 258° |
| 2026-04-25 18:47 | 40.62940 | -97.50661 | 29920 ft | 295 kts | 258° |
| 2026-04-25 18:47 | 40.62622 | -97.53342 | 29921 ft | 295 kts | 258° |
| 2026-04-25 18:47 | 40.62306 | -97.55993 | 29916 ft | 295 kts | 258° |
| 2026-04-25 18:47 | 40.61985 | -97.58670 | 29919 ft | 295 kts | 258° |
| 2026-04-25 18:48 | 40.61664 | -97.61359 | 29919 ft | 296 kts | 258° |
| 2026-04-25 18:48 | 40.61344 | -97.64016 | 29915 ft | 296 kts | 258° |
| 2026-04-25 18:48 | 40.61021 | -97.66707 | 29917 ft | 296 kts | 258° |
| 2026-04-25 18:48 | 40.60700 | -97.69373 | 29918 ft | 296 kts | 258° |
| 2026-04-25 18:49 | 40.60374 | -97.72067 | 29915 ft | 297 kts | 258° |
| 2026-04-25 18:49 | 40.60054 | -97.74720 | 29912 ft | 297 kts | 258° |
| 2026-04-25 18:49 | 40.59727 | -97.77411 | 29914 ft | 297 kts | 258° |
| 2026-04-25 18:49 | 40.59399 | -97.80111 | 29912 ft | 297 kts | 258° |
| 2026-04-25 18:50 | 40.59075 | -97.82778 | 29908 ft | 298 kts | 258° |
| 2026-04-25 18:50 | 40.58745 | -97.85474 | 29906 ft | 298 kts | 258° |
| 2026-04-25 18:50 | 40.58415 | -97.88182 | 29906 ft | 298 kts | 258° |
| 2026-04-25 18:50 | 40.58084 | -97.90886 | 29902 ft | 299 kts | 258° |
| 2026-04-25 18:51 | 40.57747 | -97.93558 | 29900 ft | 299 kts | 257° |
| 2026-04-25 18:51 | 40.57529 | -97.95356 | 29902 ft | 300 kts | 258° |
| 2026-04-25 18:51 | 40.56806 | -98.01763 | 29903 ft | 304 kts | 258° |
| 2026-04-25 18:52 | 40.56183 | -98.07233 | 29908 ft | 302 kts | 258° |
| 2026-04-25 18:52 | 40.55555 | -98.12685 | 29913 ft | 302 kts | 258° |
| 2026-04-25 18:53 | 40.54920 | -98.18153 | 29916 ft | 301 kts | 258° |
| 2026-04-25 18:53 | 40.54289 | -98.23572 | 29923 ft | 301 kts | 258° |
| 2026-04-25 18:54 | 40.53657 | -98.28987 | 29928 ft | 300 kts | 257° |
| 2026-04-25 18:54 | 40.53338 | -98.31708 | 29929 ft | 300 kts | 257° |
| 2026-04-25 18:54 | 40.53018 | -98.34433 | 29934 ft | 300 kts | 257° |
| 2026-04-25 18:55 | 40.52701 | -98.37130 | 29936 ft | 301 kts | 257° |
| 2026-04-25 18:55 | 40.52059 | -98.42564 | 29936 ft | 302 kts | 257° |
| 2026-04-25 18:56 | 40.51410 | -98.48037 | 29934 ft | 302 kts | 257° |
| 2026-04-25 18:56 | 40.50765 | -98.53461 | 29928 ft | 301 kts | 257° |
| 2026-04-25 18:57 | 40.50113 | -98.58915 | 29919 ft | 300 kts | 257° |
| 2026-04-25 18:57 | 40.49790 | -98.61607 | 29919 ft | 300 kts | 258° |
| 2026-04-25 18:57 | 40.49464 | -98.64323 | 29917 ft | 300 kts | 258° |
| 2026-04-25 18:57 | 40.49246 | -98.66131 | 29913 ft | 300 kts | 258° |
| 2026-04-25 18:58 | 40.48813 | -98.69720 | 29910 ft | 300 kts | 258° |
| 2026-04-25 18:58 | 40.48158 | -98.75136 | 29904 ft | 300 kts | 258° |
| 2026-04-25 18:58 | 40.47832 | -98.77813 | 29907 ft | 299 kts | 258° |
| 2026-04-25 18:59 | 40.47174 | -98.83229 | 29916 ft | 299 kts | 258° |
| 2026-04-25 18:59 | 40.46515 | -98.88611 | 29917 ft | 299 kts | 258° |
| 2026-04-25 19:00 | 40.45851 | -98.94024 | 29921 ft | 299 kts | 258° |
| 2026-04-25 19:00 | 40.45524 | -98.96689 | 29921 ft | 299 kts | 258° |
| 2026-04-25 19:01 | 40.44855 | -99.02097 | 29923 ft | 299 kts | 258° |
| 2026-04-25 19:01 | 40.44520 | -99.04809 | 29929 ft | 299 kts | 258° |
| 2026-04-25 19:01 | 40.44190 | -99.07474 | 29933 ft | 299 kts | 258° |
| 2026-04-25 19:01 | 40.43853 | -99.10177 | 29928 ft | 299 kts | 258° |
| 2026-04-25 19:02 | 40.43180 | -99.15580 | 29942 ft | 299 kts | 259° |
| 2026-04-25 19:02 | 40.42841 | -99.18284 | 29943 ft | 300 kts | 259° |
| 2026-04-25 19:02 | 40.42507 | -99.20951 | 29940 ft | 300 kts | 259° |
| 2026-04-25 19:03 | 40.42052 | -99.24576 | 29947 ft | 300 kts | 259° |
| 2026-04-25 19:03 | 40.41485 | -99.29072 | 29940 ft | 300 kts | 259° |
| 2026-04-25 19:03 | 40.41147 | -99.31745 | 29938 ft | 300 kts | 259° |
| 2026-04-25 19:04 | 40.40462 | -99.37157 | 29944 ft | 300 kts | 259° |
| 2026-04-25 19:04 | 40.40119 | -99.39855 | 29941 ft | 299 kts | 259° |
| 2026-04-25 19:05 | 40.39434 | -99.45232 | 29944 ft | 300 kts | 260° |
| 2026-04-25 19:05 | 40.38746 | -99.50612 | 29939 ft | 300 kts | 260° |
| 2026-04-25 19:05 | 40.38397 | -99.53329 | 29940 ft | 300 kts | 260° |
| 2026-04-25 19:06 | 40.38052 | -99.56011 | 29938 ft | 300 kts | 260° |
| 2026-04-25 19:06 | 40.37357 | -99.61404 | 29943 ft | 299 kts | 261° |
| 2026-04-25 19:06 | 40.37013 | -99.64069 | 29941 ft | 299 kts | 261° |
| 2026-04-25 19:07 | 40.36313 | -99.69464 | 29945 ft | 299 kts | 261° |
| 2026-04-25 19:07 | 40.35967 | -99.72131 | 29943 ft | 299 kts | 261° |
| 2026-04-25 19:08 | 40.35269 | -99.77487 | 29947 ft | 298 kts | 261° |
| 2026-04-25 19:08 | 40.34919 | -99.80159 | 29944 ft | 297 kts | 261° |
| 2026-04-25 19:09 | 40.33871 | -99.88143 | 29947 ft | 296 kts | 261° |
| 2026-04-25 19:09 | 40.33752 | -99.89049 | 29949 ft | 296 kts | 261° |
| 2026-04-25 19:09 | 40.32823 | -99.96087 | 29944 ft | 294 kts | 261° |
| 2026-04-25 19:10 | 40.32471 | -99.98748 | 29945 ft | 293 kts | 261° |
| 2026-04-25 19:10 | 40.32126 | -100.01346 | 29943 ft | 293 kts | 261° |
| 2026-04-25 19:10 | 40.31778 | -100.03970 | 29945 ft | 292 kts | 261° |
| 2026-04-25 19:10 | 40.31426 | -100.06604 | 29945 ft | 291 kts | 261° |
| 2026-04-25 19:11 | 40.31077 | -100.09221 | 29942 ft | 291 kts | 261° |
| 2026-04-25 19:11 | 40.30732 | -100.11809 | 29944 ft | 290 kts | 261° |
| 2026-04-25 19:11 | 40.30382 | -100.14423 | 29941 ft | 289 kts | 261° |
| 2026-04-25 19:11 | 40.30037 | -100.16995 | 29944 ft | 289 kts | 261° |
| 2026-04-25 19:12 | 40.29688 | -100.19595 | 29945 ft | 288 kts | 261° |
| 2026-04-25 19:12 | 40.29338 | -100.22188 | 29945 ft | 288 kts | 261° |
| 2026-04-25 19:12 | 40.28993 | -100.24750 | 29943 ft | 288 kts | 261° |
| 2026-04-25 19:12 | 40.28643 | -100.27344 | 29942 ft | 287 kts | 261° |
| 2026-04-25 19:13 | 40.28294 | -100.29922 | 29943 ft | 287 kts | 261° |
| 2026-04-25 19:13 | 40.27949 | -100.32469 | 29941 ft | 287 kts | 261° |
| 2026-04-25 19:13 | 40.27598 | -100.35055 | 29946 ft | 287 kts | 260° |
| 2026-04-25 19:13 | 40.27248 | -100.37627 | 29946 ft | 287 kts | 261° |
| 2026-04-25 19:14 | 40.26901 | -100.40177 | 29958 ft | 286 kts | 260° |
| 2026-04-25 19:14 | 40.26783 | -100.41043 | 29959 ft | 286 kts | 260° |
| 2026-04-25 19:14 | 40.26199 | -100.45313 | 29959 ft | 285 kts | 260° |
| 2026-04-25 19:14 | 40.25848 | -100.47878 | 29959 ft | 285 kts | 260° |
| 2026-04-25 19:15 | 40.25502 | -100.50399 | 29963 ft | 284 kts | 260° |
| 2026-04-25 19:15 | 40.25151 | -100.52956 | 29961 ft | 284 kts | 260° |
| 2026-04-25 19:15 | 40.24800 | -100.55504 | 29959 ft | 284 kts | 260° |
| 2026-04-25 19:15 | 40.24450 | -100.58045 | 29963 ft | 283 kts | 260° |
| 2026-04-25 19:16 | 40.24099 | -100.60588 | 29962 ft | 283 kts | 260° |
| 2026-04-25 19:16 | 40.23751 | -100.63103 | 29962 ft | 283 kts | 260° |
| 2026-04-25 19:16 | 40.23400 | -100.65636 | 29962 ft | 282 kts | 260° |
| 2026-04-25 19:16 | 40.23049 | -100.68166 | 29962 ft | 282 kts | 260° |
| 2026-04-25 19:17 | 40.22702 | -100.70660 | 29963 ft | 282 kts | 260° |
| 2026-04-25 19:17 | 40.22349 | -100.73197 | 29959 ft | 282 kts | 260° |
| 2026-04-25 19:17 | 40.21996 | -100.75727 | 29960 ft | 281 kts | 260° |
| 2026-04-25 19:17 | 40.21644 | -100.78247 | 29959 ft | 281 kts | 260° |
| 2026-04-25 19:18 | 40.21295 | -100.80740 | 29955 ft | 281 kts | 260° |
| 2026-04-25 19:18 | 40.20941 | -100.83263 | 29956 ft | 280 kts | 260° |
| 2026-04-25 19:18 | 40.20589 | -100.85773 | 29956 ft | 280 kts | 260° |
| 2026-04-25 19:18 | 40.20240 | -100.88252 | 29956 ft | 280 kts | 260° |
| 2026-04-25 19:19 | 40.19887 | -100.90759 | 29953 ft | 279 kts | 260° |
| 2026-04-25 19:19 | 40.19534 | -100.93262 | 29954 ft | 279 kts | 260° |
| 2026-04-25 19:19 | 40.19299 | -100.94926 | 29950 ft | 279 kts | 260° |
| 2026-04-25 19:19 | 40.19065 | -100.96584 | 29954 ft | 279 kts | 260° |
| 2026-04-25 19:20 | 40.18475 | -101.00743 | 29953 ft | 279 kts | 260° |
| 2026-04-25 19:20 | 40.18240 | -101.02399 | 29956 ft | 279 kts | 260° |
| 2026-04-25 19:20 | 40.17883 | -101.04909 | 29959 ft | 279 kts | 260° |
| 2026-04-25 19:20 | 40.17531 | -101.07384 | 29960 ft | 279 kts | 260° |
| 2026-04-25 19:21 | 40.17174 | -101.09885 | 29955 ft | 279 kts | 260° |
| 2026-04-25 19:21 | 40.16464 | -101.14851 | 29962 ft | 279 kts | 260° |
| 2026-04-25 19:21 | 40.16107 | -101.17347 | 29958 ft | 279 kts | 260° |
| 2026-04-25 19:22 | 40.15748 | -101.19843 | 29958 ft | 278 kts | 260° |
| 2026-04-25 19:22 | 40.15394 | -101.22305 | 29958 ft | 278 kts | 260° |
| 2026-04-25 19:22 | 40.14673 | -101.27307 | 29954 ft | 278 kts | 260° |
| 2026-04-25 19:23 | 40.14317 | -101.29772 | 29955 ft | 278 kts | 260° |
| 2026-04-25 19:23 | 40.13600 | -101.34724 | 29958 ft | 278 kts | 260° |
| 2026-04-25 19:23 | 40.13253 | -101.37224 | 29957 ft | 278 kts | 261° |
| 2026-04-25 19:24 | 40.13108 | -101.39732 | 29958 ft | 278 kts | 268° |
| 2026-04-25 19:24 | 40.13050 | -101.42271 | 29960 ft | 277 kts | 265° |
| 2026-04-25 19:24 | 40.12802 | -101.47288 | 29960 ft | 277 kts | 266° |
| 2026-04-25 19:25 | 40.12564 | -101.52327 | 29964 ft | 277 kts | 266° |
| 2026-04-25 19:25 | 40.12459 | -101.54803 | 29965 ft | 277 kts | 266° |
| 2026-04-25 19:25 | 40.12340 | -101.57334 | 29965 ft | 277 kts | 266° |
| 2026-04-25 19:26 | 40.12223 | -101.59851 | 29968 ft | 277 kts | 266° |
| 2026-04-25 19:26 | 40.12109 | -101.62349 | 29967 ft | 277 kts | 266° |
| 2026-04-25 19:26 | 40.11991 | -101.64859 | 29966 ft | 277 kts | 266° |
| 2026-04-25 19:26 | 40.11874 | -101.67376 | 29967 ft | 277 kts | 266° |
| 2026-04-25 19:27 | 40.11758 | -101.69855 | 29970 ft | 276 kts | 266° |
| 2026-04-25 19:27 | 40.11679 | -101.71525 | 29971 ft | 276 kts | 266° |
| 2026-04-25 19:27 | 40.11520 | -101.74883 | 29969 ft | 276 kts | 266° |
| 2026-04-25 19:27 | 40.11401 | -101.77389 | 29974 ft | 276 kts | 266° |
| 2026-04-25 19:28 | 40.11283 | -101.79862 | 29971 ft | 276 kts | 266° |
| 2026-04-25 19:28 | 40.11163 | -101.82365 | 29971 ft | 276 kts | 266° |
| 2026-04-25 19:28 | 40.11043 | -101.84860 | 29971 ft | 275 kts | 266° |
| 2026-04-25 19:28 | 40.10921 | -101.87374 | 29978 ft | 275 kts | 266° |
| 2026-04-25 19:29 | 40.10801 | -101.89854 | 29976 ft | 275 kts | 266° |
| 2026-04-25 19:29 | 40.10678 | -101.92354 | 29976 ft | 275 kts | 266° |
| 2026-04-25 19:29 | 40.10556 | -101.94855 | 29974 ft | 275 kts | 266° |
| 2026-04-25 19:29 | 40.10435 | -101.97325 | 29977 ft | 274 kts | 265° |
| 2026-04-25 19:30 | 40.10311 | -101.99815 | 29974 ft | 274 kts | 265° |
| 2026-04-25 19:30 | 40.10187 | -102.02311 | 29976 ft | 274 kts | 265° |
| 2026-04-25 19:30 | 40.10064 | -102.04775 | 29974 ft | 274 kts | 265° |
| 2026-04-25 19:30 | 40.09939 | -102.07268 | 29974 ft | 274 kts | 265° |
| 2026-04-25 19:31 | 40.09814 | -102.09764 | 29976 ft | 273 kts | 265° |
| 2026-04-25 19:31 | 40.09688 | -102.12244 | 29979 ft | 273 kts | 265° |
| 2026-04-25 19:31 | 40.09564 | -102.14698 | 29976 ft | 273 kts | 265° |
| 2026-04-25 19:31 | 40.09437 | -102.17173 | 29979 ft | 273 kts | 265° |
| 2026-04-25 19:32 | 40.09310 | -102.19664 | 29971 ft | 273 kts | 265° |
| 2026-04-25 19:32 | 40.09183 | -102.22129 | 29978 ft | 273 kts | 265° |
| 2026-04-25 19:32 | 40.09056 | -102.24584 | 29976 ft | 273 kts | 265° |
| 2026-04-25 19:32 | 40.08970 | -102.26252 | 29979 ft | 273 kts | 265° |
| 2026-04-25 19:33 | 40.08799 | -102.29534 | 29972 ft | 272 kts | 265° |
| 2026-04-25 19:33 | 40.08671 | -102.31984 | 29976 ft | 272 kts | 265° |
| 2026-04-25 19:33 | 40.08543 | -102.34447 | 29976 ft | 272 kts | 265° |
| 2026-04-25 19:33 | 40.08411 | -102.36922 | 29971 ft | 271 kts | 265° |
| 2026-04-25 19:34 | 40.08282 | -102.39369 | 29975 ft | 271 kts | 265° |
| 2026-04-25 19:34 | 40.08153 | -102.41817 | 29976 ft | 271 kts | 265° |
| 2026-04-25 19:34 | 40.08020 | -102.44293 | 29973 ft | 271 kts | 265° |
| 2026-04-25 19:34 | 40.07888 | -102.46746 | 29971 ft | 271 kts | 265° |
| 2026-04-25 19:35 | 40.07757 | -102.49197 | 29970 ft | 270 kts | 265° |
| 2026-04-25 19:35 | 40.07624 | -102.51647 | 29970 ft | 270 kts | 265° |
| 2026-04-25 19:35 | 40.07492 | -102.54097 | 29970 ft | 270 kts | 265° |
| 2026-04-25 19:35 | 40.07360 | -102.56518 | 29968 ft | 270 kts | 265° |
| 2026-04-25 19:36 | 40.07226 | -102.58969 | 29967 ft | 270 kts | 265° |
| 2026-04-25 19:36 | 40.07093 | -102.61418 | 29969 ft | 270 kts | 265° |
| 2026-04-25 19:36 | 40.06959 | -102.63839 | 29970 ft | 269 kts | 265° |
| 2026-04-25 19:36 | 40.06823 | -102.66287 | 29964 ft | 269 kts | 265° |
| 2026-04-25 19:37 | 40.06688 | -102.68733 | 29965 ft | 269 kts | 265° |
| 2026-04-25 19:37 | 40.06553 | -102.71170 | 29965 ft | 269 kts | 265° |
| 2026-04-25 19:37 | 40.06417 | -102.73579 | 29965 ft | 268 kts | 265° |
| 2026-04-25 19:37 | 40.06280 | -102.76027 | 29963 ft | 268 kts | 265° |
| 2026-04-25 19:38 | 40.06145 | -102.78440 | 29964 ft | 268 kts | 265° |
| 2026-04-25 19:38 | 40.06007 | -102.80879 | 29966 ft | 268 kts | 265° |
| 2026-04-25 19:38 | 40.05870 | -102.83285 | 29967 ft | 268 kts | 265° |
| 2026-04-25 19:38 | 40.05732 | -102.85712 | 29971 ft | 268 kts | 265° |
| 2026-04-25 19:39 | 40.05593 | -102.88148 | 29967 ft | 268 kts | 265° |
| 2026-04-25 19:39 | 40.05455 | -102.90550 | 29969 ft | 267 kts | 265° |
| 2026-04-25 19:39 | 40.05316 | -102.92977 | 29975 ft | 267 kts | 265° |
| 2026-04-25 19:39 | 40.05177 | -102.95370 | 29967 ft | 267 kts | 265° |
| 2026-04-25 19:40 | 40.05036 | -102.97801 | 29971 ft | 268 kts | 265° |
| 2026-04-25 19:40 | 40.04895 | -103.00230 | 29972 ft | 269 kts | 265° |
| 2026-04-25 19:40 | 40.04752 | -103.02670 | 29971 ft | 269 kts | 265° |
| 2026-04-25 19:40 | 40.04609 | -103.05114 | 29969 ft | 270 kts | 265° |
| 2026-04-25 19:41 | 40.04467 | -103.07533 | 29974 ft | 270 kts | 265° |
| 2026-04-25 19:41 | 40.04322 | -103.09982 | 29977 ft | 270 kts | 265° |
| 2026-04-25 19:41 | 40.04179 | -103.12400 | 29976 ft | 270 kts | 265° |
| 2026-04-25 19:41 | 40.04130 | -103.13223 | 29976 ft | 270 kts | 265° |
| 2026-04-25 19:42 | 40.03887 | -103.17293 | 29975 ft | 270 kts | 265° |
| 2026-04-25 19:42 | 40.03742 | -103.19732 | 29979 ft | 269 kts | 265° |
| 2026-04-25 19:42 | 40.03594 | -103.22180 | 29974 ft | 269 kts | 265° |
| 2026-04-25 19:42 | 40.03449 | -103.24588 | 29976 ft | 269 kts | 265° |
| 2026-04-25 19:43 | 40.03301 | -103.27038 | 29977 ft | 269 kts | 265° |
| 2026-04-25 19:43 | 40.03152 | -103.29481 | 29975 ft | 269 kts | 266° |
| 2026-04-25 19:43 | 40.03006 | -103.31882 | 29971 ft | 269 kts | 266° |
| 2026-04-25 19:43 | 40.02857 | -103.34321 | 29974 ft | 269 kts | 265° |
| 2026-04-25 19:44 | 40.02708 | -103.36748 | 29969 ft | 268 kts | 265° |
| 2026-04-25 19:44 | 40.02558 | -103.39179 | 29967 ft | 268 kts | 266° |
| 2026-04-25 19:44 | 40.02409 | -103.41601 | 29966 ft | 268 kts | 266° |
| 2026-04-25 19:44 | 40.02258 | -103.44033 | 29960 ft | 268 kts | 266° |
| 2026-04-25 19:45 | 40.02108 | -103.46431 | 29961 ft | 267 kts | 266° |
| 2026-04-25 19:45 | 40.01957 | -103.48853 | 29957 ft | 267 kts | 266° |
| 2026-04-25 19:45 | 40.01805 | -103.51275 | 29951 ft | 267 kts | 266° |
| 2026-04-25 19:45 | 40.01654 | -103.53690 | 29946 ft | 267 kts | 266° |
| 2026-04-25 19:46 | 40.01503 | -103.56077 | 29942 ft | 266 kts | 266° |
| 2026-04-25 19:46 | 40.01350 | -103.58485 | 29939 ft | 266 kts | 266° |
| 2026-04-25 19:46 | 40.01197 | -103.60908 | 29938 ft | 266 kts | 266° |
| 2026-04-25 19:46 | 40.01046 | -103.63286 | 29934 ft | 265 kts | 266° |
| 2026-04-25 19:47 | 40.00891 | -103.65696 | 29927 ft | 265 kts | 266° |
| 2026-04-25 19:47 | 40.00738 | -103.68098 | 29931 ft | 265 kts | 266° |
| 2026-04-25 19:47 | 40.00585 | -103.70463 | 29930 ft | 264 kts | 266° |
| 2026-04-25 19:47 | 40.00430 | -103.72864 | 29930 ft | 264 kts | 266° |
| 2026-04-25 19:48 | 40.00277 | -103.75226 | 29928 ft | 264 kts | 266° |
| 2026-04-25 19:48 | 40.00122 | -103.77609 | 29929 ft | 264 kts | 266° |
| 2026-04-25 19:48 | 39.99965 | -103.80011 | 29926 ft | 263 kts | 266° |
| 2026-04-25 19:48 | 39.99811 | -103.82360 | 29924 ft | 263 kts | 266° |
| 2026-04-25 19:49 | 39.99656 | -103.84740 | 29924 ft | 263 kts | 266° |
| 2026-04-25 19:49 | 39.99603 | -103.85544 | 29921 ft | 263 kts | 266° |
| 2026-04-25 19:49 | 39.99341 | -103.89502 | 29922 ft | 262 kts | 266° |
| 2026-04-25 19:49 | 39.99185 | -103.91874 | 29921 ft | 262 kts | 266° |
| 2026-04-25 19:50 | 39.98871 | -103.96582 | 29917 ft | 261 kts | 266° |
| 2026-04-25 19:50 | 39.98713 | -103.98950 | 29918 ft | 261 kts | 266° |
| 2026-04-25 19:50 | 39.98553 | -104.01315 | 29915 ft | 261 kts | 266° |
| 2026-04-25 19:51 | 39.98397 | -104.03645 | 29912 ft | 260 kts | 266° |
| 2026-04-25 19:51 | 39.98238 | -104.06005 | 29916 ft | 260 kts | 266° |
| 2026-04-25 19:51 | 39.98080 | -104.08334 | 29914 ft | 260 kts | 266° |
| 2026-04-25 19:51 | 39.97921 | -104.10684 | 29914 ft | 260 kts | 266° |
| 2026-04-25 19:52 | 39.97761 | -104.13033 | 29912 ft | 259 kts | 266° |
| 2026-04-25 19:52 | 39.97601 | -104.15372 | 29911 ft | 259 kts | 266° |
| 2026-04-25 19:52 | 39.97440 | -104.17712 | 29912 ft | 259 kts | 266° |
| 2026-04-25 19:52 | 39.97280 | -104.20050 | 29919 ft | 258 kts | 266° |
| 2026-04-25 19:53 | 39.97119 | -104.22391 | 29921 ft | 259 kts | 266° |
| 2026-04-25 19:53 | 39.96960 | -104.24703 | 29920 ft | 260 kts | 266° |
| 2026-04-25 19:53 | 39.96794 | -104.27080 | 29923 ft | 260 kts | 266° |
| 2026-04-25 19:53 | 39.96632 | -104.29418 | 29925 ft | 260 kts | 266° |
| 2026-04-25 19:54 | 39.96469 | -104.31750 | 29925 ft | 260 kts | 266° |
| 2026-04-25 19:54 | 39.96303 | -104.34123 | 29930 ft | 260 kts | 266° |
| 2026-04-25 19:54 | 39.96139 | -104.36460 | 29932 ft | 260 kts | 266° |
| 2026-04-25 19:54 | 39.96084 | -104.37245 | 29932 ft | 260 kts | 266° |
| 2026-04-25 19:55 | 39.95808 | -104.41162 | 29935 ft | 260 kts | 266° |
| 2026-04-25 19:55 | 39.95642 | -104.43503 | 29938 ft | 260 kts | 266° |
| 2026-04-25 19:55 | 39.95478 | -104.45828 | 29936 ft | 259 kts | 266° |
| 2026-04-25 19:55 | 39.95310 | -104.48172 | 29940 ft | 259 kts | 266° |
| 2026-04-25 19:56 | 39.95145 | -104.50491 | 29945 ft | 259 kts | 266° |
| 2026-04-25 19:56 | 39.94977 | -104.52836 | 29953 ft | 258 kts | 266° |
| 2026-04-25 19:56 | 39.94812 | -104.55142 | 29954 ft | 258 kts | 266° |
| 2026-04-25 19:56 | 39.94644 | -104.57476 | 29959 ft | 257 kts | 266° |
| 2026-04-25 19:57 | 39.94477 | -104.59784 | 29937 ft | 255 kts | 266° |
| 2026-04-25 19:57 | 39.94310 | -104.62087 | 29932 ft | 254 kts | 266° |
| 2026-04-25 19:57 | 39.94144 | -104.64385 | 29934 ft | 253 kts | 266° |
| 2026-04-25 19:57 | 39.93979 | -104.66645 | 29936 ft | 252 kts | 266° |
| 2026-04-25 19:58 | 39.93812 | -104.68931 | 29935 ft | 252 kts | 266° |
| 2026-04-25 19:58 | 39.93646 | -104.71207 | 29936 ft | 251 kts | 266° |
| 2026-04-25 19:58 | 39.93481 | -104.73447 | 29937 ft | 251 kts | 266° |
| 2026-04-25 19:58 | 39.93315 | -104.75721 | 29936 ft | 251 kts | 266° |
| 2026-04-25 19:59 | 39.93148 | -104.77979 | 29930 ft | 250 kts | 266° |
| 2026-04-25 19:59 | 39.92981 | -104.80219 | 29934 ft | 250 kts | 266° |
| 2026-04-25 19:59 | 39.92815 | -104.82475 | 29928 ft | 249 kts | 266° |
| 2026-04-25 19:59 | 39.92647 | -104.84727 | 29928 ft | 249 kts | 266° |
| 2026-04-25 20:00 | 39.92480 | -104.86974 | 29925 ft | 249 kts | 266° |
| 2026-04-25 20:00 | 39.92423 | -104.87731 | 29935 ft | 248 kts | 266° |
| 2026-04-25 20:00 | 39.92146 | -104.91430 | 29938 ft | 247 kts | 266° |
| 2026-04-25 20:00 | 39.91978 | -104.93662 | 29941 ft | 247 kts | 266° |
| 2026-04-25 20:01 | 39.91643 | -104.98110 | 29952 ft | 246 kts | 266° |
| 2026-04-25 20:01 | 39.91474 | -105.00344 | 29951 ft | 246 kts | 266° |
| 2026-04-25 20:01 | 39.91307 | -105.02540 | 29951 ft | 246 kts | 266° |
| 2026-04-25 20:02 | 39.91138 | -105.04758 | 29950 ft | 246 kts | 266° |
| 2026-04-25 20:02 | 39.90967 | -105.06992 | 29951 ft | 246 kts | 266° |
| 2026-04-25 20:02 | 39.90798 | -105.09206 | 29951 ft | 245 kts | 266° |
| 2026-04-25 20:02 | 39.90632 | -105.11380 | 29950 ft | 245 kts | 266° |
| 2026-04-25 20:03 | 39.90461 | -105.13595 | 29951 ft | 245 kts | 266° |
| 2026-04-25 20:03 | 39.90290 | -105.15810 | 29953 ft | 245 kts | 266° |
| 2026-04-25 20:03 | 39.90119 | -105.18021 | 29950 ft | 245 kts | 266° |
| 2026-04-25 20:03 | 39.89949 | -105.20225 | 29946 ft | 244 kts | 266° |
| 2026-04-25 20:04 | 39.89780 | -105.22402 | 29952 ft | 244 kts | 266° |
| 2026-04-25 20:04 | 39.89591 | -105.24603 | 29950 ft | 244 kts | 264° |
| 2026-04-25 20:04 | 39.89169 | -105.26761 | 29947 ft | 247 kts | 256° |
| 2026-04-25 20:04 | 39.88580 | -105.28845 | 29946 ft | 248 kts | 256° |
| 2026-04-25 20:05 | 39.88070 | -105.30999 | 29938 ft | 247 kts | 258° |
| 2026-04-25 20:05 | 39.87550 | -105.33125 | 29931 ft | 246 kts | 256° |
| 2026-04-25 20:05 | 39.87014 | -105.35221 | 29925 ft | 246 kts | 257° |
| 2026-04-25 20:05 | 39.86496 | -105.37351 | 29918 ft | 246 kts | 257° |
| 2026-04-25 20:06 | 39.85967 | -105.39478 | 29904 ft | 246 kts | 257° |
| 2026-04-25 20:06 | 39.85433 | -105.41604 | 29890 ft | 247 kts | 257° |
| 2026-04-25 20:06 | 39.84912 | -105.43708 | 29883 ft | 247 kts | 257° |
| 2026-04-25 20:06 | 39.84379 | -105.45842 | 29873 ft | 248 kts | 257° |
| 2026-04-25 20:07 | 39.84024 | -105.47255 | 29868 ft | 248 kts | 257° |
| 2026-04-25 20:07 | 39.83315 | -105.50098 | 29855 ft | 249 kts | 257° |
| 2026-04-25 20:07 | 39.82959 | -105.51521 | 29848 ft | 249 kts | 257° |
| 2026-04-25 20:07 | 39.82417 | -105.53678 | 29808 ft | 250 kts | 256° |
| 2026-04-25 20:08 | 39.81875 | -105.55844 | 29537 ft | 257 kts | 256° |
| 2026-04-25 20:08 | 39.81108 | -105.58914 | 28614 ft | 277 kts | 256° |
| 2026-04-25 20:08 | 39.80704 | -105.60494 | 28382 ft | 278 kts | 255° |
| 2026-04-25 20:08 | 39.80102 | -105.62894 | 28064 ft | 276 kts | 256° |
| 2026-04-25 20:09 | 39.79507 | -105.65273 | 27632 ft | 276 kts | 255° |
| 2026-04-25 20:09 | 39.78915 | -105.67610 | 27260 ft | 275 kts | 255° |
| 2026-04-25 20:09 | 39.78319 | -105.69977 | 26861 ft | 274 kts | 255° |
| 2026-04-25 20:09 | 39.77723 | -105.72342 | 26466 ft | 275 kts | 255° |
| 2026-04-25 20:10 | 39.77125 | -105.74708 | 26043 ft | 275 kts | 254° |
| 2026-04-25 20:10 | 39.76534 | -105.77049 | 25608 ft | 276 kts | 254° |
| 2026-04-25 20:10 | 39.75931 | -105.79416 | 25251 ft | 274 kts | 254° |
| 2026-04-25 20:10 | 39.75334 | -105.81782 | 24920 ft | 274 kts | 253° |
| 2026-04-25 20:11 | 39.74742 | -105.84117 | 24695 ft | 274 kts | 253° |
| 2026-04-25 20:11 | 39.74140 | -105.86482 | 24395 ft | 275 kts | 253° |
| 2026-04-25 20:11 | 39.73546 | -105.88823 | 24130 ft | 275 kts | 253° |
| 2026-04-25 20:11 | 39.72945 | -105.91179 | 23796 ft | 273 kts | 253° |
| 2026-04-25 20:12 | 39.72348 | -105.93527 | 23351 ft | 273 kts | 253° |
| 2026-04-25 20:12 | 39.71749 | -105.95875 | 22818 ft | 273 kts | 252° |
| 2026-04-25 20:12 | 39.71161 | -105.98184 | 22337 ft | 273 kts | 253° |
| 2026-04-25 20:12 | 39.70763 | -105.99741 | 22040 ft | 272 kts | 252° |
| 2026-04-25 20:13 | 39.69964 | -106.02866 | 21404 ft | 272 kts | 252° |
| 2026-04-25 20:13 | 39.69368 | -106.05200 | 20953 ft | 272 kts | 252° |
| 2026-04-25 20:13 | 39.68775 | -106.07511 | 20412 ft | 276 kts | 252° |
| 2026-04-25 20:13 | 39.68163 | -106.09900 | 19883 ft | 278 kts | 252° |
| 2026-04-25 20:14 | 39.67554 | -106.12273 | 19459 ft | 275 kts | 251° |
| 2026-04-25 20:14 | 39.66944 | -106.14638 | 18955 ft | 275 kts | 251° |
| 2026-04-25 20:14 | 39.66350 | -106.16960 | 18555 ft | 274 kts | 251° |
| 2026-04-25 20:14 | 39.65743 | -106.19324 | 18113 ft | 274 kts | 251° |
| 2026-04-25 20:15 | 39.65133 | -106.21674 | 17654 ft | 273 kts | 251° |
| 2026-04-25 20:15 | 39.64542 | -106.23979 | 17331 ft | 270 kts | 251° |
| 2026-04-25 20:15 | 39.63945 | -106.26284 | 16984 ft | 268 kts | 251° |
| 2026-04-25 20:15 | 39.63353 | -106.28576 | 16669 ft | 266 kts | 251° |
| 2026-04-25 20:16 | 39.62555 | -106.30727 | 16282 ft | 266 kts | 232° |
| 2026-04-25 20:16 | 39.61141 | -106.32198 | 16068 ft | 263 kts | 213° |
| 2026-04-25 20:16 | 39.59450 | -106.33146 | 15862 ft | 264 kts | 204° |
| 2026-04-25 20:16 | 39.57744 | -106.33964 | 15602 ft | 263 kts | 206° |
| 2026-04-25 20:17 | 39.56065 | -106.34916 | 15342 ft | 262 kts | 207° |
| 2026-04-25 20:17 | 39.54390 | -106.35792 | 15176 ft | 261 kts | 202° |
| 2026-04-25 20:17 | 39.52553 | -106.36072 | 15127 ft | 269 kts | 183° |
| 2026-04-25 20:17 | 39.50674 | -106.35898 | 15145 ft | 270 kts | 180° |
| 2026-04-25 20:18 | 39.48819 | -106.35754 | 15133 ft | 269 kts | 183° |
| 2026-04-25 20:18 | 39.46933 | -106.35691 | 15013 ft | 269 kts | 182° |
| 2026-04-25 20:18 | 39.45075 | -106.35570 | 14899 ft | 269 kts | 182° |
| 2026-04-25 20:18 | 39.43198 | -106.35463 | 14782 ft | 268 kts | 183° |
| 2026-04-25 20:19 | 39.41336 | -106.35373 | 14675 ft | 267 kts | 182° |
| 2026-04-25 20:19 | 39.39494 | -106.35264 | 14544 ft | 267 kts | 182° |
| 2026-04-25 20:19 | 39.37661 | -106.35115 | 14549 ft | 259 kts | 179° |
| 2026-04-25 20:19 | 39.35917 | -106.34712 | 14479 ft | 249 kts | 173° |
| 2026-04-25 20:20 | 39.34258 | -106.34304 | 14394 ft | 240 kts | 176° |
| 2026-04-25 20:20 | 39.32642 | -106.33985 | 14393 ft | 227 kts | 177° |
| 2026-04-25 20:20 | 39.31128 | -106.33645 | 14451 ft | 211 kts | 176° |
| 2026-04-25 20:20 | 39.29776 | -106.33339 | 14397 ft | 185 kts | 178° |
| 2026-04-25 20:21 | 39.28552 | -106.33071 | 13737 ft | 172 kts | 178° |
| 2026-04-25 20:21 | 39.27387 | -106.32772 | 12949 ft | 168 kts | 176° |
| 2026-04-25 20:21 | 39.26235 | -106.32488 | 12088 ft | 170 kts | 176° |
| 2026-04-25 20:21 | 39.25078 | -106.32234 | 11200 ft | 175 kts | 179° |
| 2026-04-25 20:22 | 39.23853 | -106.32105 | 10261 ft | 173 kts | 176° |
| 2026-04-25 20:22 | 39.23111 | -106.31896 | 10008 ft | 159 kts | 167° |
| 2026-04-25 20:22 | 39.21884 | -106.31629 | 9932 ft | 109 kts | 171° |
| 2026-04-25 20:22 | 39.21446 | -106.31544 | 9928 ft | 25 kts | 171° |
| 2026-04-25 20:23 | 39.21360 | -106.31513 | 9925 ft | 5 kts | 92° |
| 2026-04-25 20:23 | 39.21380 | -106.31500 | 9926 ft | 6 kts | 335° |
| 2026-04-25 20:23 | 39.21473 | -106.31544 | 9928 ft | 18 kts | 351° |
| 2026-04-25 20:23 | 39.21619 | -106.31579 | 9927 ft | 24 kts | 349° |
| 2026-04-25 20:24 | 39.21797 | -106.31618 | 9927 ft | 27 kts | 351° |
| 2026-04-25 20:24 | 39.21989 | -106.31658 | 9934 ft | 29 kts | 351° |
| 2026-04-25 20:24 | 39.22175 | -106.31696 | 9938 ft | 24 kts | 351° |
| 2026-04-25 20:24 | 39.22356 | -106.31734 | 9935 ft | 28 kts | 347° |
| 2026-04-25 20:25 | 39.22554 | -106.31783 | 9937 ft | 31 kts | 350° |
| 2026-04-25 20:25 | 39.22725 | -106.31813 | 9934 ft | 10 kts | 15° |
| 2026-04-25 20:25 | 39.22729 | -106.31717 | 9931 ft | 15 kts | 158° |
| 2026-04-25 20:25 | 39.22609 | -106.31687 | 9935 ft | 19 kts | 170° |
| 2026-04-25 20:26 | 39.22521 | -106.31647 | 9938 ft | 6 kts | 97° |
| 2026-04-25 20:26 | 39.22522 | -106.31636 | 9937 ft | 0 kts | 74° |